createdAt,value
2018-12-13T00:01:43.176Z,96.54
2018-12-13T00:04:17.840Z,96.54
2018-12-13T00:06:52.869Z,96.95
2018-12-13T00:09:21.233Z,95.70
2018-12-13T00:11:50.589Z,96.98
2018-12-13T00:14:18.964Z,96.84
2018-12-13T00:16:47.605Z,97.17
2018-12-13T00:19:16.195Z,96.48
2018-12-13T00:21:44.580Z,96.82
2018-12-13T00:24:12.982Z,96.58
2018-12-13T00:26:41.308Z,97.56
2018-12-13T00:29:15.871Z,96.46
2018-12-13T00:31:51.335Z,96.41
2018-12-13T00:34:25.225Z,97.59
2018-12-13T00:37:03.477Z,96.61
2018-12-13T00:39:35.442Z,97.36
2018-12-13T00:42:10.517Z,96.48
2018-12-13T00:44:44.330Z,95.94
2018-12-13T00:47:19.057Z,96.80
2018-12-13T00:49:53.688Z,97.29
2018-12-13T00:52:28.508Z,96.85
2018-12-13T00:55:03.069Z,96.59
2018-12-13T00:57:38.399Z,97.04
2018-12-13T01:00:12.714Z,97.06
2018-12-13T01:02:54.016Z,97.05
2018-12-13T01:05:30.188Z,96.18
2018-12-13T01:07:58.595Z,97.28
2018-12-13T01:10:27.435Z,97.20
2018-12-13T01:12:57.164Z,96.76
2018-12-13T01:15:27.587Z,96.26
2018-12-13T01:17:56.036Z,96.27
2018-12-13T01:20:30.185Z,96.97
2018-12-13T01:23:01.613Z,96.82
2018-12-13T01:25:35.526Z,97.10
2018-12-13T01:28:10.772Z,96.99
2018-12-13T01:30:46.799Z,96.31
2018-12-13T01:33:22.608Z,96.77
2018-12-13T01:35:56.897Z,96.46
2018-12-13T01:38:31.026Z,96.77
2018-12-13T01:41:05.873Z,96.68
2018-12-13T01:43:37.818Z,96.27
2018-12-13T01:46:12.900Z,96.83
2018-12-13T01:50:51.321Z,96.56
2018-12-13T01:53:27.221Z,96.86
2018-12-13T01:56:01.435Z,96.80
2018-12-13T01:58:36.106Z,96.65
2018-12-13T02:01:10.917Z,96.17
2018-12-13T02:03:45.766Z,95.69
2018-12-13T02:06:19.807Z,96.81
2018-12-13T02:08:55.038Z,96.73
2018-12-13T02:11:29.181Z,96.27
2018-12-13T02:14:10.950Z,96.42
2018-12-13T02:16:45.758Z,96.34
2018-12-13T02:19:22.032Z,96.13
2018-12-13T02:21:56.333Z,96.76
2018-12-13T02:24:30.302Z,95.78
2018-12-13T02:26:59.085Z,95.78
2018-12-13T02:29:35.150Z,96.32
2018-12-13T02:32:08.933Z,95.68
2018-12-13T02:34:42.896Z,95.85
2018-12-13T02:37:15.993Z,96.39
2018-12-13T02:39:52.092Z,95.96
2018-12-13T02:42:26.875Z,96.16
2018-12-13T02:45:01.979Z,96.51
2018-12-13T02:47:36.419Z,95.84
2018-12-13T02:50:08.607Z,96.28
2018-12-13T02:52:43.778Z,95.97
2018-12-13T02:55:18.572Z,96.74
2018-12-13T02:57:55.103Z,96.25
2018-12-13T03:00:31.140Z,96.57
2018-12-13T03:03:05.501Z,96.56
2018-12-13T03:05:39.946Z,95.91
2018-12-13T03:08:13.795Z,96.01
2018-12-13T03:10:49.254Z,96.56
2018-12-13T03:13:21.566Z,96.98
2018-12-13T03:15:55.995Z,96.83
2018-12-13T03:18:24.456Z,96.35
2018-12-13T03:20:58.237Z,96.17
2018-12-13T03:23:32.540Z,96.75
2018-12-13T03:26:08.476Z,96.92
2018-12-13T03:28:42.450Z,96.56
2018-12-13T03:31:18.519Z,96.87
2018-12-13T03:33:52.970Z,96.89
2018-12-13T03:36:27.148Z,96.26
2018-12-13T03:39:01.351Z,97.12
2018-12-13T03:41:36.014Z,96.73
2018-12-13T03:44:10.423Z,97.26
2018-12-13T03:49:08.092Z,96.92
2018-12-13T03:51:42.350Z,97.49
2018-12-13T03:54:16.759Z,96.81
2018-12-13T03:56:52.008Z,97.10
2018-12-13T03:59:26.247Z,96.75
2018-12-13T04:02:00.628Z,97.05
2018-12-13T04:04:34.749Z,97.38
2018-12-13T04:07:09.240Z,97.35
2018-12-13T04:09:43.693Z,97.09
2018-12-13T04:12:18.203Z,98.06
2018-12-13T04:14:52.841Z,97.62
2018-12-13T04:17:27.012Z,97.84
2018-12-13T04:22:52.746Z,98.42
2018-12-13T04:25:27.441Z,97.70
2018-12-13T04:28:01.829Z,97.81
2018-12-13T04:30:36.204Z,97.13
2018-12-13T04:33:10.365Z,96.75
2018-12-13T04:35:44.764Z,97.06
2018-12-13T04:38:17.161Z,97.14
2018-12-13T04:40:51.790Z,97.50
2018-12-13T04:43:25.862Z,97.67
2018-12-13T04:46:01.055Z,97.58
2018-12-13T04:48:35.662Z,97.82
2018-12-13T04:51:08.101Z,97.27
2018-12-13T04:53:41.883Z,97.29
2018-12-13T04:56:16.529Z,97.47
2018-12-13T04:58:50.607Z,97.63
2018-12-13T05:01:25.212Z,97.84
2018-12-13T05:03:59.538Z,97.84
2018-12-13T05:06:34.026Z,97.48
2018-12-13T05:09:09.148Z,97.55
2018-12-13T05:11:43.966Z,97.66
2018-12-13T05:14:18.136Z,97.07
2018-12-13T05:16:52.904Z,98.07
2018-12-13T05:19:27.393Z,97.72
2018-12-13T05:22:01.750Z,97.84
2018-12-13T05:24:36.917Z,97.79
2018-12-13T05:27:11.363Z,97.35
2018-12-13T05:29:44.674Z,97.55
2018-12-13T05:32:20.091Z,97.07
2018-12-13T05:34:54.489Z,97.71
2018-12-13T05:37:29.482Z,98.18
2018-12-13T05:40:03.673Z,97.48
2018-12-13T05:42:36.785Z,97.04
2018-12-13T05:45:10.597Z,97.58
2018-12-13T05:47:44.785Z,97.35
2018-12-13T05:50:19.367Z,97.96
2018-12-13T05:52:53.139Z,98.33
2018-12-13T05:55:28.257Z,96.77
2018-12-13T05:58:03.296Z,97.16
2018-12-13T06:00:37.859Z,97.71
2018-12-13T06:03:14.368Z,97.62
2018-12-13T06:05:48.898Z,98.04
2018-12-13T06:08:23.658Z,97.42
2018-12-13T06:10:59.017Z,98.33
2018-12-13T06:13:34.227Z,97.78
2018-12-13T06:16:28.309Z,97.46
2018-12-13T06:34:18.479Z,96.59
2018-12-13T06:44:54.008Z,96.87
2018-12-13T06:47:29.981Z,97.07
2018-12-13T06:50:04.447Z,96.46
2018-12-13T06:52:50.680Z,96.45
2018-12-13T06:55:31.659Z,96.93
2018-12-13T06:58:20.233Z,96.84
2018-12-13T07:01:05.246Z,97.07
2018-12-13T07:03:40.047Z,96.40
2018-12-13T07:17:39.058Z,96.92
